createdAt,value
2023-05-17T00:02:12.635Z,101442.84
2023-05-17T00:04:40.316Z,101446.63
2023-05-17T00:07:07.966Z,101447.03
2023-05-17T00:09:36.073Z,101440.13
2023-05-17T00:12:03.807Z,101453.34
2023-05-17T00:14:31.411Z,101441.63
2023-05-17T00:17:00.545Z,101446.22
2023-05-17T00:19:28.420Z,101444.50
2023-05-17T00:21:55.799Z,101456.28
2023-05-17T00:24:23.192Z,101455.44
2023-05-17T00:26:50.554Z,101448.34
2023-05-17T00:29:18.117Z,101455.16
2023-05-17T00:31:45.671Z,101456.56
2023-05-17T00:34:13.267Z,101456.19
2023-05-17T00:36:40.718Z,101451.31
2023-05-17T00:39:08.112Z,101458.50
2023-05-17T00:41:36.002Z,101453.66
2023-05-17T00:44:03.424Z,101454.03
2023-05-17T00:46:31.092Z,101454.72
2023-05-17T00:48:58.696Z,101445.09
2023-05-17T00:51:26.207Z,101443.78
2023-05-17T00:53:53.681Z,101446.94
2023-05-17T00:56:21.339Z,101448.78
2023-05-17T00:58:48.876Z,101447.81
2023-05-17T01:01:16.833Z,101450.56
2023-05-17T01:03:44.863Z,101443.84
2023-05-17T01:06:13.196Z,101445.81
2023-05-17T01:08:41.199Z,101445.34
2023-05-17T01:11:08.744Z,101448.50
2023-05-17T01:14:06.897Z,101448.44
2023-05-17T01:16:44.492Z,101449.28
2023-05-17T01:19:36.704Z,101440.94
2023-05-17T01:22:25.168Z,101440.31
2023-05-17T01:25:12.455Z,101442.22
2023-05-17T01:27:43.662Z,101449.16
2023-05-17T01:30:14.397Z,101460.03
2023-05-17T01:32:43.627Z,101455.03
2023-05-17T01:35:12.596Z,101451.50
2023-05-17T01:37:40.411Z,101443.19
2023-05-17T01:40:09.549Z,101441.69
2023-05-17T01:42:42.883Z,101439.81
2023-05-17T01:45:41.551Z,101448.59
2023-05-17T01:48:21.999Z,101447.38
2023-05-17T01:50:52.599Z,101439.84
2023-05-17T01:53:55.802Z,101439.69
2023-05-17T01:56:32.895Z,101439.44
2023-05-17T01:59:06.870Z,101444.91
2023-05-17T02:01:36.496Z,101447.59
2023-05-17T02:04:04.140Z,101444.44
2023-05-17T02:06:31.825Z,101447.22
2023-05-17T02:09:01.203Z,101447.81
2023-05-17T02:11:28.956Z,101448.69
2023-05-17T02:13:56.484Z,101450.97
2023-05-17T02:16:23.898Z,101460.59
2023-05-17T02:18:51.752Z,101458.47
2023-05-17T02:21:19.414Z,101458.69
2023-05-17T02:23:46.894Z,101463.28
2023-05-17T02:26:14.385Z,101463.28
2023-05-17T02:28:41.809Z,101466.63
2023-05-17T02:31:09.727Z,101474.19
2023-05-17T02:33:37.645Z,101477.31
2023-05-17T02:36:05.487Z,101475.84
2023-05-17T02:38:33.138Z,101484.66
2023-05-17T02:41:00.461Z,101471.69
2023-05-17T02:43:27.817Z,101484.44
2023-05-17T02:45:55.226Z,101486.75
2023-05-17T02:48:23.013Z,101489.69
2023-05-17T02:50:50.410Z,101487.78
2023-05-17T02:53:18.034Z,101496.19
2023-05-17T02:55:45.475Z,101502.88
2023-05-17T02:58:12.976Z,101498.06
2023-05-17T03:00:40.463Z,101502.66
2023-05-17T03:03:08.118Z,101507.91
2023-05-17T03:05:36.516Z,101513.97
2023-05-17T03:08:10.490Z,101521.09
2023-05-17T03:10:37.857Z,101521.09
2023-05-17T03:13:05.428Z,101518.34
2023-05-17T03:15:32.973Z,101514.34
2023-05-17T03:18:00.809Z,101516.28
2023-05-17T03:20:28.316Z,101524.84
2023-05-17T03:22:55.760Z,101518.34
2023-05-17T03:25:23.119Z,101519.38
2023-05-17T03:27:50.549Z,101519.81
2023-05-17T03:30:18.073Z,101521.06
2023-05-17T03:32:46.291Z,101536.97
2023-05-17T03:35:13.783Z,101540.97
2023-05-17T03:37:41.502Z,101538.25
2023-05-17T03:40:09.209Z,101540.53
2023-05-17T03:42:37.181Z,101536.94
2023-05-17T03:45:05.238Z,101536.94
2023-05-17T03:47:32.669Z,101547.00
2023-05-17T03:50:00.035Z,101549.97
2023-05-17T03:52:27.442Z,101551.81
2023-05-17T03:54:54.904Z,101551.63
2023-05-17T03:57:22.478Z,101552.47
2023-05-17T03:59:49.896Z,101554.53
2023-05-17T04:02:17.393Z,101554.97
2023-05-17T04:04:52.087Z,101559.13
2023-05-17T04:07:19.718Z,101552.41
2023-05-17T04:09:47.621Z,101559.97
2023-05-17T04:12:15.349Z,101559.31
2023-05-17T04:14:42.782Z,101562.00
2023-05-17T04:17:10.504Z,101563.28
2023-05-17T04:19:37.940Z,101572.50
2023-05-17T04:22:05.641Z,101571.44
2023-05-17T04:24:33.274Z,101571.44
2023-05-17T04:27:03.254Z,101570.97
2023-05-17T04:29:31.043Z,101569.97
2023-05-17T04:31:59.384Z,101582.34
2023-05-17T04:34:27.038Z,101581.44
2023-05-17T04:36:54.568Z,101587.47
2023-05-17T04:39:22.380Z,101589.81
2023-05-17T04:41:49.759Z,101593.31
2023-05-17T04:44:17.785Z,101595.38
2023-05-17T04:46:45.970Z,101592.41
2023-05-17T04:49:14.291Z,101595.25
2023-05-17T04:51:41.764Z,101595.69
2023-05-17T04:54:09.210Z,101600.09
2023-05-17T04:56:36.844Z,101594.38
2023-05-17T04:59:04.384Z,101599.97
2023-05-17T05:01:31.801Z,101599.81
2023-05-17T05:03:59.297Z,101604.41
2023-05-17T05:06:26.851Z,101598.03
2023-05-17T05:08:54.264Z,101597.19
2023-05-17T05:11:21.712Z,101597.22
2023-05-17T05:13:49.807Z,101605.16
2023-05-17T05:16:17.325Z,101603.38
2023-05-17T05:18:44.760Z,101603.47
2023-05-17T05:21:12.166Z,101604.00
2023-05-17T05:23:39.682Z,101608.06
2023-05-17T05:26:07.084Z,101604.28
2023-05-17T05:28:34.513Z,101607.19
2023-05-17T05:31:02.269Z,101606.56
2023-05-17T05:33:30.142Z,101607.19
2023-05-17T05:35:57.561Z,101610.34
2023-05-17T05:38:25.074Z,101612.78
2023-05-17T05:40:52.513Z,101618.09
2023-05-17T05:43:20.038Z,101619.44
2023-05-17T05:45:47.484Z,101621.44
2023-05-17T05:48:16.348Z,101621.44
2023-05-17T05:50:44.610Z,101621.44
2023-05-17T05:53:18.587Z,101621.09
2023-05-17T05:55:46.912Z,101617.75
2023-05-17T05:58:14.389Z,101617.31
2023-05-17T06:00:41.895Z,101618.56
2023-05-17T06:03:09.344Z,101620.88
2023-05-17T06:05:37.046Z,101621.53
2023-05-17T06:08:04.796Z,101613.00
2023-05-17T06:10:32.521Z,101610.88
2023-05-17T06:13:00.023Z,101620.91
2023-05-17T06:15:28.668Z,101615.28
2023-05-17T06:17:56.135Z,101612.66
2023-05-17T06:20:23.759Z,101611.19
2023-05-17T06:22:51.267Z,101609.97
2023-05-17T06:25:18.666Z,101604.69
2023-05-17T06:27:46.407Z,101616.31
2023-05-17T06:30:14.168Z,101617.16
2023-05-17T06:32:42.351Z,101616.63
2023-05-17T06:35:10.693Z,101612.06
2023-05-17T06:37:38.334Z,101611.88
2023-05-17T06:40:15.461Z,101616.66
2023-05-17T06:42:44.741Z,101610.25
2023-05-17T06:47:40.391Z,101610.94
2023-05-17T06:50:08.861Z,101600.84
2023-05-17T06:52:36.971Z,101608.84
2023-05-17T06:55:04.858Z,101599.78
2023-05-17T06:57:32.490Z,101601.91
2023-05-17T07:00:00.055Z,101600.69
2023-05-17T07:02:27.447Z,101606.03
2023-05-17T07:04:55.202Z,101609.22
2023-05-17T07:07:22.882Z,101600.94
2023-05-17T07:09:50.276Z,101606.00
2023-05-17T07:12:17.645Z,101608.16
2023-05-17T07:14:45.609Z,101614.38
2023-05-17T07:17:13.213Z,101605.31
2023-05-17T07:19:40.659Z,101602.16
2023-05-17T07:22:08.266Z,101598.31
2023-05-17T07:24:36.252Z,101591.56
2023-05-17T07:27:03.776Z,101600.06
2023-05-17T07:29:31.212Z,101594.59
2023-05-17T07:31:58.728Z,101599.78
2023-05-17T07:34:26.206Z,101601.94
2023-05-17T07:36:53.625Z,101590.94
2023-05-17T07:39:21.144Z,101592.84
2023-05-17T07:41:48.503Z,101591.06
2023-05-17T07:44:16.004Z,101595.50
2023-05-17T07:46:43.555Z,101596.78
2023-05-17T07:49:11.748Z,101590.75
2023-05-17T07:51:39.158Z,101600.44
2023-05-17T07:54:06.968Z,101594.78
2023-05-17T07:56:34.681Z,101590.75
2023-05-17T07:59:02.351Z,101591.09
2023-05-17T08:01:29.883Z,101585.94
2023-05-17T08:03:57.455Z,101580.97
2023-05-17T08:06:25.086Z,101581.31
2023-05-17T08:08:52.684Z,101577.63
2023-05-17T08:11:20.161Z,101584.38
2023-05-17T08:13:47.670Z,101577.50
2023-05-17T08:16:15.256Z,101590.22
2023-05-17T08:18:43.747Z,101592.22
2023-05-17T08:21:11.697Z,101591.16
2023-05-17T08:23:40.914Z,101583.88
2023-05-17T08:26:08.370Z,101591.88
2023-05-17T08:28:35.868Z,101589.13
2023-05-17T08:31:04.295Z,101587.72
2023-05-17T08:33:33.639Z,101584.53
2023-05-17T08:36:03.051Z,101576.19
2023-05-17T08:38:30.827Z,101586.25
2023-05-17T08:41:00.010Z,101570.81
2023-05-17T08:43:28.819Z,101579.72
2023-05-17T08:46:00.386Z,101578.97
2023-05-17T08:48:31.411Z,101584.25
2023-05-17T08:51:00.363Z,101562.66
2023-05-17T08:53:28.756Z,101567.84
2023-05-17T08:56:01.020Z,101564.00
2023-05-17T08:58:41.084Z,101562.81
2023-05-17T09:01:19.964Z,101569.84
2023-05-17T09:03:51.168Z,101550.81
2023-05-17T09:06:21.756Z,101555.53
2023-05-17T09:08:54.946Z,101551.78
2023-05-17T09:11:29.075Z,101560.94
2023-05-17T09:14:01.655Z,101560.19
2023-05-17T09:16:30.831Z,101559.84
2023-05-17T09:18:59.147Z,101554.78
2023-05-17T09:21:28.568Z,101557.69
2023-05-17T09:26:26.526Z,101552.38
2023-05-17T09:28:54.069Z,101548.34
2023-05-17T09:31:21.644Z,101547.84
2023-05-17T09:33:50.773Z,101551.13
2023-05-17T09:36:22.060Z,101545.06
2023-05-17T09:39:16.014Z,101536.22
2023-05-17T09:41:48.351Z,101543.47
2023-05-17T09:44:16.697Z,101549.00
2023-05-17T09:46:48.514Z,101545.75
2023-05-17T09:49:17.960Z,101538.25
2023-05-17T09:51:48.835Z,101544.59
2023-05-17T09:54:17.839Z,101535.22
2023-05-17T09:56:45.759Z,101537.19
2023-05-17T09:59:17.101Z,101535.81
2023-05-17T10:01:45.657Z,101544.66
2023-05-17T10:04:14.280Z,101528.38
2023-05-17T10:06:51.431Z,101535.53
2023-05-17T10:09:22.761Z,101530.53
2023-05-17T10:11:53.115Z,101526.38
2023-05-17T10:14:36.235Z,101518.91
2023-05-17T10:17:05.036Z,101516.44
2023-05-17T10:19:33.417Z,101526.63
2023-05-17T10:22:18.990Z,101514.78
2023-05-17T10:24:53.942Z,101512.00
2023-05-17T10:27:22.263Z,101521.72
2023-05-17T10:29:52.220Z,101514.78
2023-05-17T10:32:23.361Z,101521.97
2023-05-17T10:35:02.177Z,101505.38
2023-05-17T10:37:37.793Z,101510.28
2023-05-17T10:40:05.933Z,101501.00
2023-05-17T10:42:34.533Z,101500.97
2023-05-17T10:45:02.301Z,101497.38
2023-05-17T10:47:34.119Z,101495.19
2023-05-17T10:50:02.318Z,101489.47
2023-05-17T10:52:30.683Z,101496.56
2023-05-17T10:54:59.907Z,101486.22
2023-05-17T10:57:49.975Z,101496.88
2023-05-17T11:00:22.117Z,101493.88
2023-05-17T11:02:50.864Z,101483.00
2023-05-17T11:05:25.927Z,101478.56
2023-05-17T11:08:13.083Z,101480.31
2023-05-17T11:11:10.639Z,101487.66
2023-05-17T11:13:52.279Z,101480.63
2023-05-17T11:16:25.549Z,101478.38
2023-05-17T11:19:06.575Z,101468.56
2023-05-17T11:21:35.604Z,101466.25
2023-05-17T11:24:04.399Z,101468.75
2023-05-17T11:26:38.038Z,101464.84
2023-05-17T11:29:08.547Z,101466.25
2023-05-17T11:31:38.468Z,101451.59
2023-05-17T11:34:06.829Z,101446.44
2023-05-17T11:36:49.780Z,101448.09
2023-05-17T11:39:22.150Z,101450.25
2023-05-17T11:41:53.913Z,101443.13
2023-05-17T11:44:33.170Z,101450.34
2023-05-17T11:47:01.990Z,101445.72
2023-05-17T11:49:36.430Z,101441.63
2023-05-17T11:52:08.543Z,101440.72
2023-05-17T11:54:39.056Z,101431.44
2023-05-17T11:57:07.193Z,101435.22
2023-05-17T11:59:40.116Z,101434.06
2023-05-17T12:02:07.930Z,101426.44
2023-05-17T12:04:37.938Z,101419.88
2023-05-17T12:07:10.654Z,101415.34
2023-05-17T12:09:39.815Z,101420.03
2023-05-17T12:12:08.785Z,101419.28
2023-05-17T12:14:36.752Z,101412.50
2023-05-17T12:17:08.191Z,101408.00
2023-05-17T12:19:36.248Z,101414.59
2023-05-17T12:22:14.849Z,101408.72
2023-05-17T12:24:43.144Z,101402.22
2023-05-17T12:27:10.916Z,101400.00
2023-05-17T12:29:39.336Z,101405.56
2023-05-17T12:32:10.236Z,101403.47
2023-05-17T12:34:38.471Z,101395.53
2023-05-17T12:37:10.635Z,101392.19
2023-05-17T12:39:38.948Z,101392.97
2023-05-17T12:42:07.383Z,101379.72
2023-05-17T12:44:35.951Z,101389.00
2023-05-17T12:47:03.463Z,101387.66
2023-05-17T12:49:30.975Z,101380.88
2023-05-17T12:52:05.012Z,101386.72
2023-05-17T12:54:33.308Z,101388.13
2023-05-17T12:57:12.443Z,101383.88
2023-05-17T12:59:48.260Z,101382.00
2023-05-17T13:02:16.787Z,101379.56
2023-05-17T13:04:44.415Z,101378.63
2023-05-17T13:07:12.303Z,101384.00
2023-05-17T13:09:48.312Z,101385.66
2023-05-17T13:12:23.934Z,101381.78
2023-05-17T13:14:53.667Z,101376.66
2023-05-17T13:17:27.548Z,101377.63
2023-05-17T13:19:58.028Z,101381.00
2023-05-17T13:22:25.948Z,101376.50
2023-05-17T13:24:54.415Z,101388.53
2023-05-17T13:27:21.890Z,101379.44
2023-05-17T13:29:49.330Z,101377.84
2023-05-17T13:32:16.837Z,101379.44
2023-05-17T13:34:44.348Z,101379.03
2023-05-17T13:37:12.787Z,101372.06
2023-05-17T13:39:43.445Z,101376.91
2023-05-17T13:42:12.845Z,101379.44
2023-05-17T13:44:40.871Z,101374.72
2023-05-17T13:47:08.501Z,101372.16
2023-05-17T13:49:36.290Z,101367.03
2023-05-17T13:52:03.897Z,101372.19
2023-05-17T13:54:31.460Z,101372.75
2023-05-17T13:56:58.848Z,101381.09
2023-05-17T13:59:26.416Z,101371.81
2023-05-17T14:01:53.989Z,101367.31
2023-05-17T14:04:21.527Z,101369.66
2023-05-17T14:06:50.277Z,101368.31
2023-05-17T14:09:19.220Z,101365.97
2023-05-17T14:11:46.728Z,101377.47
2023-05-17T14:14:14.064Z,101366.81
2023-05-17T14:16:41.624Z,101366.59
2023-05-17T14:19:09.179Z,101364.00
2023-05-17T14:21:37.589Z,101355.41
2023-05-17T14:24:05.379Z,101347.88
2023-05-17T14:26:33.449Z,101342.97
2023-05-17T14:29:01.066Z,101350.16
2023-05-17T14:31:30.078Z,101341.59
2023-05-17T14:33:57.672Z,101350.16
2023-05-17T14:36:25.311Z,101344.59
2023-05-17T14:38:52.779Z,101342.91
2023-05-17T14:41:22.121Z,101339.59
2023-05-17T14:43:49.525Z,101336.22
2023-05-17T14:46:17.141Z,101333.38
2023-05-17T14:48:44.567Z,101333.84
2023-05-17T14:51:12.479Z,101332.34
2023-05-17T14:53:40.174Z,101328.44
2023-05-17T14:56:07.807Z,101325.16
2023-05-17T14:58:35.924Z,101326.38
2023-05-17T15:01:05.050Z,101328.09
2023-05-17T15:03:34.279Z,101330.31
2023-05-17T15:06:05.121Z,101325.81
2023-05-17T15:08:36.138Z,101319.69
2023-05-17T15:11:03.637Z,101324.09
2023-05-17T15:13:31.086Z,101328.97
2023-05-17T15:15:58.839Z,101325.91
2023-05-17T15:18:26.305Z,101331.56
2023-05-17T15:20:53.735Z,101323.75
2023-05-17T15:23:21.163Z,101327.56
2023-05-17T15:25:48.551Z,101324.84
2023-05-17T15:28:16.055Z,101321.19
2023-05-17T15:30:43.552Z,101319.16
2023-05-17T15:33:11.443Z,101320.31
2023-05-17T15:35:41.921Z,101319.66
2023-05-17T15:38:09.477Z,101322.28
2023-05-17T15:40:37.789Z,101324.50
2023-05-17T15:43:05.595Z,101321.25
2023-05-17T15:45:33.554Z,101317.25
2023-05-17T15:48:02.212Z,101329.50
2023-05-17T15:50:29.844Z,101319.69
2023-05-17T15:52:57.536Z,101325.91
2023-05-17T15:55:24.947Z,101327.00
2023-05-17T15:57:52.422Z,101327.41
2023-05-17T16:00:20.359Z,101331.28
2023-05-17T16:02:47.804Z,101327.38
2023-05-17T16:05:15.211Z,101327.19
2023-05-17T16:07:42.661Z,101332.59
2023-05-17T16:10:10.263Z,101329.41
2023-05-17T16:12:38.317Z,101339.09
2023-05-17T16:15:06.184Z,101336.91
2023-05-17T16:17:33.871Z,101332.84
2023-05-17T16:20:01.668Z,101336.75
2023-05-17T16:22:29.262Z,101341.59
2023-05-17T16:24:57.211Z,101344.25
2023-05-17T16:27:24.722Z,101342.34
2023-05-17T16:29:52.259Z,101340.88
2023-05-17T16:32:19.772Z,101336.97
2023-05-17T16:34:47.419Z,101342.44
2023-05-17T16:37:14.780Z,101344.81
2023-05-17T16:39:42.346Z,101341.03
2023-05-17T16:42:09.782Z,101345.94
2023-05-17T16:44:37.424Z,101352.94
2023-05-17T16:47:05.320Z,101347.09
2023-05-17T16:49:32.834Z,101348.28
2023-05-17T16:52:00.250Z,101356.25
2023-05-17T16:54:28.560Z,101349.28
2023-05-17T16:56:56.569Z,101350.19
2023-05-17T16:59:24.084Z,101362.03
2023-05-17T17:01:51.635Z,101350.72
2023-05-17T17:04:19.203Z,101353.47
2023-05-17T17:06:46.986Z,101354.34
2023-05-17T17:09:15.120Z,101348.81
2023-05-17T17:11:42.608Z,101354.69
2023-05-17T17:14:11.113Z,101360.56
2023-05-17T17:16:38.968Z,101359.84
2023-05-17T17:19:06.686Z,101355.63
2023-05-17T17:21:38.735Z,101356.31
2023-05-17T17:24:06.801Z,101353.72
2023-05-17T17:26:35.615Z,101356.56
2023-05-17T17:29:06.696Z,101368.72
2023-05-17T17:31:34.337Z,101365.66
2023-05-17T17:34:01.731Z,101367.44
2023-05-17T17:36:30.456Z,101364.56
2023-05-17T17:38:58.163Z,101364.13
2023-05-17T17:41:26.258Z,101360.78
2023-05-17T17:43:53.616Z,101360.06
2023-05-17T17:46:21.103Z,101370.19
2023-05-17T17:48:48.590Z,101363.91
2023-05-17T17:51:16.109Z,101372.44
2023-05-17T17:53:43.501Z,101368.53
2023-05-17T17:56:11.062Z,101363.41
2023-05-17T17:58:38.542Z,101366.13
2023-05-17T18:01:06.219Z,101372.91
2023-05-17T18:03:33.890Z,101377.28
2023-05-17T18:06:01.423Z,101377.38
2023-05-17T18:08:28.979Z,101374.38
2023-05-17T18:10:56.482Z,101371.09
2023-05-17T18:13:23.934Z,101374.41
2023-05-17T18:15:51.410Z,101374.03
2023-05-17T18:18:19.005Z,101364.50
2023-05-17T18:20:46.684Z,101366.00
2023-05-17T18:23:14.148Z,101370.47
2023-05-17T18:25:41.549Z,101370.41
2023-05-17T18:28:09.244Z,101372.25
2023-05-17T18:30:37.048Z,101375.44
2023-05-17T18:33:04.477Z,101365.41
2023-05-17T18:35:32.572Z,101365.44
2023-05-17T18:38:00.733Z,101363.41
2023-05-17T18:40:28.418Z,101361.78
2023-05-17T18:42:55.984Z,101360.34
2023-05-17T18:45:23.652Z,101358.63
2023-05-17T18:47:51.301Z,101367.94
2023-05-17T18:50:18.925Z,101364.44
2023-05-17T18:52:46.544Z,101366.56
2023-05-17T18:55:14.892Z,101365.16
2023-05-17T18:57:43.158Z,101360.97
2023-05-17T19:00:11.224Z,101365.28
2023-05-17T19:02:39.372Z,101357.78
2023-05-17T19:05:07.605Z,101360.44
2023-05-17T19:07:36.446Z,101354.06
2023-05-17T19:10:04.610Z,101359.53
2023-05-17T19:12:33.085Z,101353.88
2023-05-17T19:15:00.604Z,101350.00
2023-05-17T19:17:28.303Z,101349.03
2023-05-17T19:19:55.822Z,101346.09
2023-05-17T19:22:23.505Z,101339.63
2023-05-17T19:24:50.922Z,101340.69
2023-05-17T19:27:19.946Z,101344.00
2023-05-17T19:29:48.160Z,101337.81
2023-05-17T19:32:15.715Z,101339.97
2023-05-17T19:34:43.415Z,101345.91
2023-05-17T19:37:10.860Z,101345.13
2023-05-17T19:39:38.486Z,101346.28
2023-05-17T19:42:06.537Z,101346.69
2023-05-17T19:44:34.425Z,101340.25
2023-05-17T19:47:01.876Z,101351.13
2023-05-17T19:49:29.461Z,101344.41
2023-05-17T19:52:00.765Z,101344.88
2023-05-17T19:54:29.643Z,101342.78
2023-05-17T19:56:58.295Z,101354.72
2023-05-17T19:59:26.212Z,101340.69
2023-05-17T20:01:53.701Z,101344.91
2023-05-17T20:04:21.078Z,101344.50
2023-05-17T20:06:48.899Z,101349.53
2023-05-17T20:09:16.778Z,101344.94
2023-05-17T20:11:44.595Z,101349.53
2023-05-17T20:14:12.482Z,101344.94
2023-05-17T20:16:40.170Z,101347.84
2023-05-17T20:19:07.743Z,101351.22
2023-05-17T20:21:36.259Z,101352.03
2023-05-17T20:24:06.934Z,101351.03
2023-05-17T20:26:37.867Z,101342.84
2023-05-17T20:29:07.442Z,101342.00
2023-05-17T20:31:35.775Z,101342.22
2023-05-17T20:34:04.080Z,101352.47
2023-05-17T20:36:32.671Z,101347.44
2023-05-17T20:39:00.170Z,101347.03
2023-05-17T20:41:27.601Z,101346.38
2023-05-17T20:43:55.053Z,101343.91
2023-05-17T20:46:22.606Z,101346.16
2023-05-17T20:48:50.636Z,101351.44
2023-05-17T20:51:19.642Z,101349.97
2023-05-17T20:53:47.164Z,101345.16
2023-05-17T20:56:14.621Z,101345.53
2023-05-17T20:58:42.121Z,101349.88
2023-05-17T21:01:10.204Z,101346.53
2023-05-17T21:03:39.833Z,101356.56
2023-05-17T21:06:08.326Z,101352.59
2023-05-17T21:08:36.456Z,101347.78
2023-05-17T21:11:04.127Z,101349.03
2023-05-17T21:13:32.267Z,101362.81
2023-05-17T21:15:59.881Z,101360.28
2023-05-17T21:18:29.570Z,101355.69
2023-05-17T21:20:57.197Z,101354.22
2023-05-17T21:23:24.577Z,101349.41
2023-05-17T21:25:51.995Z,101344.78
2023-05-17T21:28:19.428Z,101353.75
2023-05-17T21:30:46.978Z,101356.88
2023-05-17T21:33:14.462Z,101358.34
2023-05-17T21:35:42.158Z,101349.78
2023-05-17T21:38:09.752Z,101349.16
2023-05-17T21:40:39.020Z,101348.38
2023-05-17T21:43:12.442Z,101349.19
2023-05-17T21:45:41.352Z,101350.03
2023-05-17T21:48:08.881Z,101339.59
2023-05-17T21:50:36.592Z,101346.91
2023-05-17T21:53:04.073Z,101345.25
2023-05-17T21:55:36.798Z,101347.16
2023-05-17T21:58:08.500Z,101348.66
2023-05-17T22:00:36.540Z,101337.84
2023-05-17T22:03:04.356Z,101338.25
2023-05-17T22:05:32.781Z,101334.91
2023-05-17T22:08:00.192Z,101341.16
2023-05-17T22:10:27.719Z,101331.94
2023-05-17T22:12:55.472Z,101340.97
2023-05-17T22:15:23.267Z,101344.50
2023-05-17T22:17:52.986Z,101339.00
2023-05-17T22:20:23.773Z,101330.66
2023-05-17T22:22:51.390Z,101340.69
2023-05-17T22:25:18.774Z,101330.81
2023-05-17T22:27:46.408Z,101341.09
2023-05-17T22:30:14.136Z,101331.88
2023-05-17T22:32:41.796Z,101327.91
2023-05-17T22:35:09.564Z,101328.53
2023-05-17T22:37:37.687Z,101332.06
2023-05-17T22:40:06.658Z,101336.47
2023-05-17T22:42:34.248Z,101338.59
2023-05-17T22:45:02.009Z,101337.97
2023-05-17T22:47:30.373Z,101335.00
2023-05-17T22:49:57.848Z,101336.66
2023-05-17T22:52:25.213Z,101335.66
2023-05-17T22:54:52.650Z,101342.75
2023-05-17T22:57:20.042Z,101339.81
2023-05-17T22:59:47.535Z,101339.22
2023-05-17T23:02:14.977Z,101340.22
2023-05-17T23:04:45.968Z,101341.53
2023-05-17T23:07:15.090Z,101332.78
2023-05-17T23:09:42.572Z,101338.41
2023-05-17T23:12:14.546Z,101340.72
2023-05-17T23:14:42.597Z,101339.69
2023-05-17T23:17:10.055Z,101343.69
2023-05-17T23:19:38.146Z,101339.50
2023-05-17T23:22:06.481Z,101335.31
2023-05-17T23:24:38.813Z,101335.53
2023-05-17T23:27:10.313Z,101335.34
2023-05-17T23:29:42.181Z,101340.75
2023-05-17T23:32:09.679Z,101331.50
2023-05-17T23:34:37.143Z,101333.81
2023-05-17T23:37:04.659Z,101332.78
2023-05-17T23:39:32.132Z,101329.41
2023-05-17T23:41:59.556Z,101332.34
2023-05-17T23:44:27.038Z,101333.38
2023-05-17T23:46:55.429Z,101333.19
2023-05-17T23:49:25.860Z,101325.25
2023-05-17T23:51:53.457Z,101336.09
2023-05-17T23:54:22.378Z,101330.41
2023-05-17T23:56:49.830Z,101339.38
2023-05-17T23:59:17.208Z,101332.88
